메인 페이지
METAR-TAF:

METAR-TAF

공항 :

Leesburg, 플로리다, 미국

위도: 28-49-21N, 경도: 081-48-32W, 고도: 24m

현재 날씨관측

예보는 55분 전, 18:53시(UTC)에 발표되었습니다.
서남서11kt, 순간 최대 풍속 19kt
온도 21°C
습도 60%
기압 1011 hPa
시정: 16.1km
맑음

METAR: KLEE 301853Z 25011G19KT 10SM CLR 21/13 A2986 RMK AO2 SLP109 T02060128

시각: 14:48 (19:48 UTC)

예보

예보는 2 시간 24분 전, 17:24시(UTC)에 발표되었습니다.
예보 대상 시간: 30일 18시부터 01일 18시까지 (UTC)
10kt
시정: 10km
고도 2000ft 상공 구름 보통
고도 5000ft 상공 구름 많음
30일 2000시부터 (UTC)
10kt
시정: 10km
고도 10000ft 상공 구름 보통
고도 20000ft 상공 구름 많음
일시적
30일 20시부터 30일 22시까지 (UTC)
12kt, 순간 최대 풍속 18kt
01일 0200시부터 (UTC)
서북서9kt
시정: 10km
맑음
01일 1500시부터 (UTC)
북북서10kt
시정: 10km
고도 2000ft 상공 구름 조금

TAF: KLEE 301724Z 3018/0118 26010KT P6SM SCT020 BKN050 FM302000 27010KT P6SM SCT100 BKN200 TEMPO 3020/3022 27012G18KT FM010200 29009KT P6SM SKC FM011500 34010KT P6SM FEW020

4,000개 이상의 공항 관측 자료 및 예보 (METAR 및 TAF 보고).

지도상에서 검색 가능한 기상관측소가 노란 점과 빨간 점으로 표시되어 있습니다.

기상관측소 명을 보려면 표시 위로 마우스를 이동하세요.

날씨 관측과 예보를 보려면 클릭하세요.

지도 변경 : 확대하려면 엑스 표시가 있는 녹색 버튼, 축소하려면 빼기 표시가 있는 녹색 버튼, 다음 페이지의 지도를 보려면 녹색 화살표를 클릭하세요.


METAR-TAF: